Time;durP1;ratioP1;P1;durP2;ratioP2;P2;SDS_P1;SDS_P2;PMS_P1;PMS_P2;Temp;Humidity;BMP_temperature;BMP_pressure;BME280_temperature;BME280_humidity;BME280_pressure;Samples;Min_cycle;Max_cycle;Signal;HPM_P1;HPM_P2
2021/12/18 00:00:32;;;;;;;5.43;4.47;;;;;;;2.02;82.91;99567.97;5052076;28;20895;-58
2021/12/18 00:02:58;;;;;;;6.97;4.93;;;;;;;2.01;83.53;99559.47;5059649;28;20036;-57
2021/12/18 00:05:23;;;;;;;4.65;4.00;;;;;;;2.04;83.37;99566.31;5060712;28;20186;-57
2021/12/18 00:07:49;;;;;;;6.40;4.82;;;;;;;2.13;82.86;99570.66;5047333;28;20074;-57
2021/12/18 00:10:19;;;;;;;5.55;4.13;;;;;;;2.08;82.65;99568.03;5059872;28;20056;-57
2021/12/18 00:12:49;;;;;;;5.72;4.40;;;;;;;2.14;83.21;99562.16;5063859;28;20089;-57
2021/12/18 00:15:21;;;;;;;4.82;4.32;;;;;;;2.07;83.04;99567.19;5063282;28;20095;-57
2021/12/18 00:17:47;;;;;;;6.07;3.85;;;;;;;2.02;82.84;99563.75;5063733;28;20127;-57
2021/12/18 00:20:15;;;;;;;4.72;3.60;;;;;;;1.82;82.64;99540.50;5063327;28;20032;-58
2021/12/18 00:22:41;;;;;;;4.15;3.47;;;;;;;2.03;82.67;99557.78;5063727;28;20032;-57
2021/12/18 00:25:07;;;;;;;4.82;3.50;;;;;;;2.04;82.38;99556.94;5064111;28;20044;-58
2021/12/18 00:27:33;;;;;;;4.68;3.53;;;;;;;2.02;82.76;99558.66;5063816;28;20329;-57
2021/12/18 00:29:59;;;;;;;4.47;3.30;;;;;;;2.07;82.84;99569.75;5064634;28;20033;-57
2021/12/18 00:32:24;;;;;;;4.18;3.47;;;;;;;2.11;82.26;99560.44;5064245;28;20074;-59
2021/12/18 00:34:50;;;;;;;3.95;3.30;;;;;;;2.11;82.49;99557.88;5064149;28;20099;-57
2021/12/18 00:37:16;;;;;;;5.22;3.78;;;;;;;2.01;81.98;99540.72;5064994;28;20247;-57
2021/12/18 00:39:52;;;;;;;4.47;3.85;;;;;;;2.10;82.31;99555.31;5064338;28;20028;-58
2021/12/18 00:42:35;;;;;;;5.35;3.88;;;;;;;2.11;82.82;99550.22;5064306;28;20082;-58
2021/12/18 00:45:21;;;;;;;4.40;3.95;;;;;;;2.11;83.13;99555.34;5051988;28;20036;-58
2021/12/18 00:47:47;;;;;;;6.88;4.28;;;;;;;2.10;82.83;99552.75;5063453;28;20066;-57
2021/12/18 00:50:20;;;;;;;4.90;4.20;;;;;;;2.08;82.39;99557.81;5064435;28;20034;-58
2021/12/18 00:52:47;;;;;;;4.70;3.63;;;;;;;2.10;82.51;99558.72;5064181;28;20325;-58
2021/12/18 00:55:14;;;;;;;3.92;3.13;;;;;;;2.10;82.35;99555.31;5063518;28;20037;-58
2021/12/18 00:57:40;;;;;;;4.95;3.75;;;;;;;2.10;82.42;99558.72;5063939;28;20241;-57
2021/12/18 01:00:09;;;;;;;4.50;3.80;;;;;;;2.02;82.71;99562.88;5063935;28;20036;-57
2021/12/18 01:02:36;;;;;;;5.60;4.10;;;;;;;2.02;83.12;99567.97;5062917;28;20033;-57
2021/12/18 01:05:06;;;;;;;6.22;4.00;;;;;;;2.09;83.30;99572.31;5063257;28;20039;-57
2021/12/18 01:07:32;;;;;;;6.80;3.70;;;;;;;2.09;83.46;99574.03;5061870;28;20850;-58
2021/12/18 01:12:45;;;;;;;5.75;4.03;;;;;;;2.05;83.28;99563.78;5063041;28;20502;-58
2021/12/18 01:15:17;;;;;;;4.80;4.00;;;;;;;2.11;83.49;99573.22;5063887;28;20043;-58
2021/12/18 01:23:13;;;;;;;4.13;3.42;;;;;;;1.88;84.52;99571.25;5062138;28;20329;-57
2021/12/18 01:25:39;;;;;;;4.28;2.90;;;;;;;1.92;84.56;99576.38;5063338;28;20051;-58
2021/12/18 01:28:04;;;;;;;4.10;3.05;;;;;;;1.84;84.25;99573.72;5063548;28;20036;-58
2021/12/18 01:30:30;;;;;;;3.65;2.90;;;;;;;1.97;84.84;99575.59;5063649;28;20032;-57
2021/12/18 01:32:56;;;;;;;5.38;2.90;;;;;;;1.93;84.82;99571.28;5063659;28;20032;-57
2021/12/18 01:35:22;;;;;;;5.00;3.47;;;;;;;2.02;84.36;99575.66;5063684;28;20036;-57
2021/12/18 01:37:50;;;;;;;4.60;3.40;;;;;;;2.00;84.50;99573.06;5063435;28;20044;-57
2021/12/18 01:40:16;;;;;;;5.32;3.17;;;;;;;1.99;84.63;99560.28;5062261;28;20115;-58
2021/12/18 01:45:22;;;;;;;7.53;4.93;;;;;;;2.07;84.04;99574.00;5023975;28;20074;-58
2021/12/18 01:53:19;;;;;;;6.47;4.95;;;;;;;1.92;83.81;99558.50;5024766;28;20033;-58
2021/12/18 01:55:45;;;;;;;5.97;4.55;;;;;;;2.05;83.87;99574.00;5024019;28;20064;-58
2021/12/18 01:58:11;;;;;;;7.45;4.30;;;;;;;2.02;83.44;99573.97;5023741;28;20032;-57
2021/12/18 02:00:42;;;;;;;5.55;4.20;;;;;;;1.92;83.68;99578.94;5023663;28;20045;-58
2021/12/18 02:03:08;;;;;;;8.73;4.72;;;;;;;1.98;83.40;99581.56;5028408;28;20301;-58
2021/12/18 02:05:34;;;;;;;6.32;4.05;;;;;;;1.98;83.42;99577.31;5011941;28;20412;-58
2021/12/18 02:08:00;;;;;;;6.25;4.45;;;;;;;1.95;83.32;99567.03;5023318;28;20040;-57
2021/12/18 02:10:30;;;;;;;8.10;4.85;;;;;;;2.09;82.99;99579.13;5023296;28;20037;-58
2021/12/18 02:13:04;;;;;;;5.30;4.35;;;;;;;1.99;82.78;99580.72;5023305;28;20038;-58
2021/12/18 02:21:07;;;;;;;6.72;4.63;;;;;;;2.11;83.02;99575.75;5024393;28;20290;-60
2021/12/18 02:23:36;;;;;;;8.98;5.15;;;;;;;1.96;82.59;99578.13;5023345;28;20053;-59
2021/12/18 02:26:02;;;;;;;7.32;4.88;;;;;;;2.03;82.71;99579.91;5024479;28;20050;-58
2021/12/18 02:28:28;;;;;;;5.90;4.15;;;;;;;2.03;83.44;99579.91;5023064;28;20095;-58
2021/12/18 02:30:56;;;;;;;5.15;4.15;;;;;;;1.72;83.73;99525.94;5023642;28;20064;-59
2021/12/18 02:33:22;;;;;;;5.47;4.50;;;;;;;2.09;83.99;99592.75;5023110;28;20050;-59
2021/12/18 02:35:51;;;;;;;6.60;4.55;;;;;;;1.98;84.50;99594.31;5024150;28;20131;-60
2021/12/18 02:38:32;;;;;;;5.60;4.40;;;;;;;1.51;84.86;99542.72;5022880;28;20064;-58
2021/12/18 02:41:07;;;;;;;5.32;3.60;;;;;;;1.78;84.73;99597.50;5023123;28;20045;-58
2021/12/18 02:43:38;;;;;;;4.97;3.10;;;;;;;1.67;82.90;99597.34;5039894;28;20036;-59
2021/12/18 02:46:08;;;;;;;5.90;3.53;;;;;;;1.70;82.75;99579.53;5060460;28;20059;-59
2021/12/18 02:48:40;;;;;;;4.15;2.70;;;;;;;1.65;81.47;99618.59;5060696;28;20040;-58
2021/12/18 02:51:09;;;;;;;3.50;2.58;;;;;;;1.29;81.17;99548.38;5060523;28;20033;-59
2021/12/18 02:53:38;;;;;;;3.17;2.80;;;;;;;1.34;81.27;99551.81;5061422;28;20108;-59
2021/12/18 02:56:06;;;;;;;3.33;2.25;;;;;;;1.37;81.04;99605.47;5042988;28;20321;-58
2021/12/18 02:58:36;;;;;;;3.42;1.80;;;;;;;1.01;79.61;99555.59;5060595;28;20047;-60
2021/12/18 03:01:04;;;;;;;1.98;1.58;;;;;;;1.35;79.08;99614.78;5056678;28;20113;-59
2021/12/18 03:03:33;;;;;;;2.00;1.58;;;;;;;1.31;80.35;99607.91;5060272;28;20044;-59
2021/12/18 03:06:46;;;;;;;1.80;1.48;;;;;;;1.36;80.87;99607.13;5054208;28;20112;-58
2021/12/18 03:24:56;;;;;;;2.25;1.83;;;;;;;1.47;78.78;99609.84;5060822;28;20051;-58
2021/12/18 03:27:22;;;;;;;1.60;1.50;;;;;;;1.55;78.85;99610.81;5060665;28;20071;-59
2021/12/18 03:29:49;;;;;;;1.75;1.48;;;;;;;1.55;79.31;99613.38;5054091;28;20025;-58
2021/12/18 03:32:15;;;;;;;1.67;1.50;;;;;;;1.59;77.61;99621.06;5060465;28;20028;-58
2021/12/18 03:34:41;;;;;;;4.13;1.83;;;;;;;1.54;78.89;99613.34;5061085;28;20041;-58
2021/12/18 03:37:06;;;;;;;1.63;1.52;;;;;;;1.51;78.93;99619.28;5061093;28;20074;-58
2021/12/18 03:39:32;;;;;;;1.88;1.70;;;;;;;1.51;78.67;99614.16;5060784;28;20032;-58
2021/12/18 03:41:58;;;;;;;2.35;1.80;;;;;;;1.54;78.75;99621.00;5046855;28;20064;-59
2021/12/18 03:44:23;;;;;;;2.25;1.77;;;;;;;1.44;78.07;99619.13;5020820;28;20065;-59
2021/12/18 03:46:50;;;;;;;1.60;1.50;;;;;;;1.52;78.47;99620.97;5021475;28;20033;-59
2021/12/18 03:49:17;;;;;;;2.70;1.60;;;;;;;1.52;78.68;99623.50;5020935;28;20615;-59
2021/12/18 03:51:42;;;;;;;3.10;1.50;;;;;;;1.50;78.43;99621.81;5021185;28;20640;-58
2021/12/18 03:54:08;;;;;;;2.17;1.95;;;;;;;1.39;77.77;99624.19;5020519;28;20037;-58
2021/12/18 03:56:34;;;;;;;2.92;2.00;;;;;;;1.44;78.01;99619.13;5021167;28;20041;-58
2021/12/18 03:58:59;;;;;;;2.33;1.77;;;;;;;1.50;77.64;99630.31;5021053;28;20365;-57
2021/12/18 04:01:26;;;;;;;2.72;1.70;;;;;;;1.40;77.27;99623.34;5021738;28;20042;-57
2021/12/18 04:03:52;;;;;;;2.45;1.75;;;;;;;1.53;77.33;99630.34;5021844;28;20102;-58
2021/12/18 04:06:18;;;;;;;4.03;1.85;;;;;;;1.50;77.88;99629.47;5021217;28;20388;-58
2021/12/18 04:08:44;;;;;;;3.60;1.70;;;;;;;1.32;76.93;99617.28;5021483;28;20044;-57
2021/12/18 04:11:10;;;;;;;2.15;1.73;;;;;;;1.46;76.71;99637.91;5020982;28;20034;-57
2021/12/18 04:13:35;;;;;;;1.98;1.45;;;;;;;1.45;76.85;99631.91;5020996;28;20061;-58
2021/12/18 04:16:01;;;;;;;2.45;1.60;;;;;;;1.42;77.75;99633.59;5020359;28;20323;-57
2021/12/18 04:18:27;;;;;;;3.40;1.75;;;;;;;1.46;77.25;99628.53;5008857;28;20057;-57
2021/12/18 04:20:52;;;;;;;2.33;1.83;;;;;;;1.47;77.00;99631.94;5020596;28;20041;-58
2021/12/18 04:23:18;;;;;;;3.10;2.10;;;;;;;1.47;76.05;99632.81;5020681;28;20223;-58
2021/12/18 04:25:44;;;;;;;3.58;1.95;;;;;;;1.38;76.82;99625.88;5018587;28;20274;-58
2021/12/18 04:28:09;;;;;;;4.47;2.55;;;;;;;1.35;76.68;99628.41;5020280;28;20065;-58
2021/12/18 04:30:35;;;;;;;2.83;2.08;;;;;;;1.34;77.17;99631.78;5020701;28;20052;-57
2021/12/18 04:33:01;;;;;;;3.97;2.33;;;;;;;1.36;77.59;99636.91;5021288;28;20137;-57
2021/12/18 04:35:27;;;;;;;2.60;2.20;;;;;;;1.32;77.52;99630.03;5020502;28;20041;-58
2021/12/18 04:37:53;;;;;;;3.70;2.63;;;;;;;1.32;77.18;99633.44;5010051;28;20236;-58
2021/12/18 04:40:25;;;;;;;3.13;2.05;;;;;;;1.30;77.55;99637.66;5021193;28;20022;-57
2021/12/18 04:42:51;;;;;;;2.20;2.00;;;;;;;1.24;77.45;99639.25;5020897;28;20055;-58
2021/12/18 04:45:16;;;;;;;3.58;1.90;;;;;;;1.12;77.10;99628.03;5020718;28;20044;-58
2021/12/18 04:47:42;;;;;;;2.95;1.90;;;;;;;1.15;76.90;99642.53;5020015;28;20022;-58
2021/12/18 04:50:08;;;;;;;2.05;1.65;;;;;;;1.26;77.20;99640.16;5020555;28;20064;-58
2021/12/18 04:52:34;;;;;;;2.53;1.85;;;;;;;1.27;76.90;99641.84;5020755;28;20038;-58
2021/12/18 04:55:00;;;;;;;2.20;1.80;;;;;;;1.25;77.10;99643.53;5021163;28;20286;-57
2021/12/18 04:57:26;;;;;;;2.67;1.88;;;;;;;1.12;77.28;99637.38;5023065;28;20334;-57
2021/12/18 04:59:51;;;;;;;3.25;2.17;;;;;;;1.18;77.81;99633.25;5021551;28;20037;-59
2021/12/18 05:02:21;;;;;;;3.95;2.33;;;;;;;1.22;77.53;99648.59;5022360;28;20036;-58
2021/12/18 05:04:46;;;;;;;4.38;2.60;;;;;;;1.18;76.69;99645.13;5024313;28;20038;-58
2021/12/18 05:07:12;;;;;;;3.78;2.30;;;;;;;1.10;76.93;99645.00;5023970;28;20364;-58
2021/12/18 05:09:39;;;;;;;4.13;2.47;;;;;;;1.15;76.44;99645.06;5024622;28;20670;-58
2021/12/18 05:12:05;;;;;;;3.95;2.30;;;;;;;1.06;76.02;99645.78;5023739;28;20100;-57
2021/12/18 05:14:31;;;;;;;2.63;2.00;;;;;;;1.00;75.55;99650.78;5024595;28;20041;-58
2021/12/18 05:16:56;;;;;;;4.47;2.78;;;;;;;0.95;75.74;99643.06;5023722;28;20060;-58
2021/12/18 05:19:22;;;;;;;4.00;2.75;;;;;;;0.99;76.42;99646.53;5023737;28;20556;-58
2021/12/18 05:21:47;;;;;;;4.28;2.95;;;;;;;1.08;75.62;99661.13;5023582;28;20087;-58
2021/12/18 05:24:13;;;;;;;4.88;2.83;;;;;;;1.03;75.11;99654.25;5023952;28;20040;-58
2021/12/18 05:26:39;;;;;;;5.47;2.65;;;;;;;0.91;75.50;99655.72;5029629;28;20044;-58
2021/12/18 05:29:05;;;;;;;5.25;2.92;;;;;;;1.01;75.21;99655.91;5008284;28;20029;-58
2021/12/18 05:31:30;;;;;;;3.10;2.20;;;;;;;0.96;74.83;99646.47;5024319;28;20060;-58
2021/12/18 05:33:59;;;;;;;5.07;2.55;;;;;;;0.77;74.85;99646.16;5023937;28;20092;-59
2021/12/18 05:39:00;;;;;;;;;;;;;;;0.96;74.86;99651.56;5024726;28;22065;-58
2021/12/18 05:41:26;;;;;;;6.05;3.53;;;;;;;0.92;74.93;99644.72;5027649;28;19944;-59
2021/12/18 05:43:52;;;;;;;4.65;2.90;;;;;;;0.92;75.59;99650.66;5063031;28;20040;-57
2021/12/18 05:46:17;;;;;;;5.28;2.80;;;;;;;0.98;75.13;99649.91;5063598;28;20040;-58
2021/12/18 05:48:43;;;;;;;5.60;3.53;;;;;;;1.00;74.85;99655.91;5041897;28;20063;-57
2021/12/18 05:51:08;;;;;;;7.18;3.70;;;;;;;0.97;75.26;99654.16;5060933;28;20079;-58
2021/12/18 05:53:34;;;;;;;5.50;3.15;;;;;;;0.91;75.21;99642.97;5062770;28;20032;-57
2021/12/18 05:56:00;;;;;;;7.00;3.22;;;;;;;0.95;74.54;99648.16;5062764;28;20352;-57
2021/12/18 05:58:25;;;;;;;5.05;3.13;;;;;;;0.79;74.95;99644.47;5056920;28;20032;-57
2021/12/18 06:00:51;;;;;;;4.28;2.97;;;;;;;0.87;75.51;99637.00;5062367;28;20341;-57
2021/12/18 06:03:16;;;;;;;5.85;3.42;;;;;;;0.81;75.90;99645.38;5061652;28;20315;-56
2021/12/18 06:05:42;;;;;;;4.85;3.33;;;;;;;0.96;75.83;99651.56;5041356;28;20036;-58
2021/12/18 06:08:11;;;;;;;5.93;3.33;;;;;;;0.91;75.26;99653.19;5062080;28;20033;-57
2021/12/18 06:10:38;;;;;;;5.43;3.17;;;;;;;0.99;76.69;99656.72;5062890;28;20033;-58
2021/12/18 06:13:04;;;;;;;6.50;3.20;;;;;;;1.03;76.13;99654.25;5061962;28;20124;-58
2021/12/18 06:15:31;;;;;;;4.88;3.10;;;;;;;0.85;75.64;99652.22;5062893;28;20032;-58
2021/12/18 06:17:58;;;;;;;6.30;3.33;;;;;;;0.89;75.65;99670.16;5062632;28;20071;-58
2021/12/18 06:20:26;;;;;;;4.90;3.00;;;;;;;0.95;75.21;99660.06;5061918;28;20470;-58
2021/12/18 06:22:53;;;;;;;5.28;2.97;;;;;;;0.88;73.58;99661.63;5061456;28;20033;-58
2021/12/18 06:25:19;;;;;;;4.18;2.67;;;;;;;0.84;74.37;99647.09;5061613;28;20053;-59
2021/12/18 06:27:45;;;;;;;3.72;2.53;;;;;;;0.79;73.49;99653.84;5060787;28;20044;-58
2021/12/18 06:30:12;;;;;;;4.80;2.20;;;;;;;0.95;74.82;99660.06;5060534;28;20032;-58
2021/12/18 06:32:39;;;;;;;3.80;2.20;;;;;;;0.92;74.32;99660.00;5058847;28;20113;-59
2021/12/18 06:35:06;;;;;;;2.58;1.75;;;;;;;0.95;74.26;99652.41;5059529;28;20033;-58
2021/12/18 06:37:32;;;;;;;3.53;1.90;;;;;;;0.82;73.42;99657.28;5060862;28;20028;-58
2021/12/18 06:39:57;;;;;;;3.03;2.17;;;;;;;0.89;73.70;99657.41;5061012;28;20063;-59
2021/12/18 06:42:23;;;;;;;4.30;2.40;;;;;;;0.96;73.30;99659.22;5060258;28;20455;-58
2021/12/18 06:44:48;;;;;;;4.70;2.70;;;;;;;0.76;73.26;99658.88;5047540;28;20520;-59
2021/12/18 06:47:14;;;;;;;2.13;1.85;;;;;;;0.81;73.25;99659.81;5060190;28;20047;-58
2021/12/18 06:49:40;;;;;;;4.63;2.00;;;;;;;0.81;73.06;99657.25;5060577;28;20024;-58
2021/12/18 06:52:05;;;;;;;3.80;2.38;;;;;;;0.90;73.69;99661.66;5059592;28;20032;-58
2021/12/18 06:54:32;;;;;;;4.43;2.53;;;;;;;0.91;74.06;99669.31;5059003;28;20047;-57
2021/12/18 06:56:59;;;;;;;3.22;2.30;;;;;;;0.83;71.91;99653.06;5060431;28;20099;-57
2021/12/18 06:59:25;;;;;;;3.90;2.28;;;;;;;0.86;72.81;99656.50;5061647;28;20302;-58
2021/12/18 07:01:52;;;;;;;3.42;1.95;;;;;;;0.79;72.38;99648.75;5061731;28;20079;-58
2021/12/18 07:04:19;;;;;;;3.83;2.58;;;;;;;0.74;71.45;99637.59;5060026;28;20308;-58
2021/12/18 07:06:45;;;;;;;3.30;2.38;;;;;;;0.79;70.26;99651.28;5047088;28;20229;-60
2021/12/18 07:09:11;;;;;;;2.75;2.05;;;;;;;0.79;70.56;99649.59;5059415;28;20032;-58
2021/12/18 07:11:36;;;;;;;4.00;2.50;;;;;;;0.83;70.69;99647.97;5061439;28;20944;-58
2021/12/18 07:14:02;;;;;;;5.80;3.08;;;;;;;0.84;70.57;99642.88;5060313;28;20043;-58
2021/12/18 07:16:28;;;;;;;3.75;3.10;;;;;;;0.91;70.55;99650.63;5061032;28;20386;-58
2021/12/18 07:18:53;;;;;;;4.28;3.20;;;;;;;0.85;70.25;99631.84;5060547;28;20390;-58
2021/12/18 07:21:19;;;;;;;5.15;3.25;;;;;;;0.86;69.08;99651.41;5060263;28;20033;-58
2021/12/18 07:23:45;;;;;;;4.50;2.88;;;;;;;0.99;70.19;99649.91;5060010;28;20330;-59
2021/12/18 07:26:12;;;;;;;4.95;2.85;;;;;;;0.95;68.93;99643.06;5059223;28;20028;-58
2021/12/18 07:28:38;;;;;;;4.57;3.30;;;;;;;1.11;70.89;99646.72;5060490;28;20304;-58
2021/12/18 07:31:04;;;;;;;3.45;2.92;;;;;;;1.09;69.64;99643.28;5060300;28;20029;-57
2021/12/18 07:33:29;;;;;;;3.30;2.80;;;;;;;1.15;69.31;99643.38;5059678;28;20044;-58
2021/12/18 07:35:55;;;;;;;5.72;3.25;;;;;;;1.26;69.74;99660.56;5048653;28;20032;-58
2021/12/18 07:38:21;;;;;;;5.88;3.88;;;;;;;1.16;70.16;99651.91;5059663;28;20146;-58
2021/12/18 07:40:46;;;;;;;7.15;4.32;;;;;;;1.22;69.80;99652.00;5059737;28;20028;-58
2021/12/18 07:43:12;;;;;;;6.30;3.60;;;;;;;1.12;68.63;99642.47;5027380;28;20061;-59
2021/12/18 07:45:38;;;;;;;4.55;3.50;;;;;;;1.23;69.29;99653.72;5020193;28;20037;-59
2021/12/18 07:48:04;;;;;;;4.75;3.40;;;;;;;1.27;69.77;99652.06;5021148;28;20041;-59
2021/12/18 07:50:31;;;;;;;3.85;2.83;;;;;;;1.30;68.54;99659.78;5008812;28;20357;-58
2021/12/18 07:52:57;;;;;;;3.55;2.90;;;;;;;1.34;69.32;99654.75;5021426;28;20342;-58
2021/12/18 07:55:23;;;;;;;4.22;3.10;;;;;;;1.24;68.74;99657.13;5019308;28;20064;-59
2021/12/18 07:57:51;;;;;;;3.60;2.70;;;;;;;1.11;68.45;99656.06;5021267;28;20034;-59
2021/12/18 08:00:18;;;;;;;5.00;2.58;;;;;;;1.00;69.73;99644.00;5020701;28;20259;-59
2021/12/18 08:02:44;;;;;;;7.60;3.70;;;;;;;1.14;69.77;99653.56;5019792;28;20109;-59
2021/12/18 08:05:10;;;;;;;4.65;3.30;;;;;;;1.23;69.28;99643.50;5020816;28;20112;-58
2021/12/18 08:07:35;;;;;;;4.28;2.70;;;;;;;1.24;68.78;99647.78;5021362;28;20038;-59
2021/12/18 08:10:01;;;;;;;3.33;2.47;;;;;;;1.11;68.42;99635.66;5020216;28;20044;-58
2021/12/18 08:12:28;;;;;;;6.65;2.25;;;;;;;1.18;69.15;99633.25;5020097;28;20227;-59
2021/12/18 08:14:55;;;;;;;2.85;1.77;;;;;;;1.35;68.20;99636.06;5021459;28;20040;-59
2021/12/18 08:17:22;;;;;;;3.08;2.08;;;;;;;1.58;67.78;99629.56;5020547;28;20117;-58
2021/12/18 08:19:48;;;;;;;3.30;1.60;;;;;;;1.41;67.95;99631.88;5021722;28;20280;-59
2021/12/18 08:22:13;;;;;;;4.57;1.92;;;;;;;1.45;69.29;99619.16;5022109;28;20025;-58
2021/12/18 08:24:39;;;;;;;4.78;2.40;;;;;;;1.41;70.70;99621.66;5020973;28;20522;-59
2021/12/18 08:27:04;;;;;;;3.00;2.15;;;;;;;1.40;71.20;99620.81;5020105;28;20395;-58
2021/12/18 08:29:30;;;;;;;6.47;3.80;;;;;;;1.23;72.04;99612.91;5021498;28;20033;-57
2021/12/18 08:31:55;;;;;;;4.40;2.67;;;;;;;1.10;74.38;99606.75;5022251;28;20052;-58
2021/12/18 08:34:22;;;;;;;4.07;2.47;;;;;;;1.10;75.26;99611.84;5025927;28;20041;-58
2021/12/18 08:36:48;;;;;;;4.68;2.13;;;;;;;1.04;74.93;99599.00;5024387;28;20052;-58
2021/12/18 08:39:14;;;;;;;4.20;2.08;;;;;;;1.02;75.44;99605.78;5024581;28;20104;-58
2021/12/18 08:41:42;;;;;;;4.00;2.10;;;;;;;1.11;76.28;99595.72;5033400;28;20056;-58
2021/12/18 08:44:08;;;;;;;3.28;1.90;;;;;;;1.07;76.89;99593.97;5063607;28;20107;-59
2021/12/18 08:46:35;;;;;;;2.10;1.77;;;;;;;1.09;76.39;99583.78;5063837;28;20071;-58
2021/12/18 08:49:01;;;;;;;4.28;2.03;;;;;;;1.06;76.71;99599.88;5040229;28;20029;-57
2021/12/18 08:51:26;;;;;;;2.15;1.90;;;;;;;0.95;76.57;99593.75;5063022;28;20055;-59
2021/12/18 08:53:52;;;;;;;3.20;1.88;;;;;;;0.94;76.54;99579.28;5063227;28;20198;-59
2021/12/18 08:56:18;;;;;;;2.17;1.60;;;;;;;0.99;76.86;99583.63;5062264;28;20093;-59
2021/12/18 08:58:43;;;;;;;1.63;1.52;;;;;;;0.85;76.42;99575.75;5064092;28;20029;-59
2021/12/18 09:01:09;;;;;;;4.03;2.40;;;;;;;1.00;76.23;99575.16;5063621;28;20029;-59
2021/12/18 09:03:35;;;;;;;1.60;1.50;;;;;;;0.95;74.56;99564.00;5063517;28;20067;-59
2021/12/18 09:06:02;;;;;;;7.75;2.83;;;;;;;0.59;75.57;99496.34;5042676;28;20317;-59
2021/12/18 09:08:27;;;;;;;5.97;1.85;;;;;;;0.92;74.42;99558.03;5063836;28;20135;-60
2021/12/18 09:10:53;;;;;;;4.13;2.35;;;;;;;0.96;75.31;99555.53;5061398;28;20032;-59
2021/12/18 09:13:18;;;;;;;1.67;1.38;;;;;;;0.90;75.40;99552.03;5062674;28;20041;-58
2021/12/18 09:15:45;;;;;;;1.88;1.40;;;;;;;0.78;75.18;99548.44;5062962;28;20047;-62
2021/12/18 09:18:11;;;;;;;2.75;1.90;;;;;;;0.94;75.61;99548.69;5063384;28;20043;-60
2021/12/18 09:20:36;;;;;;;1.40;1.30;;;;;;;0.95;75.95;99545.31;5062161;28;20329;-60
2021/12/18 09:23:02;;;;;;;2.08;1.42;;;;;;;0.99;75.90;99544.53;5063478;28;20340;-59
2021/12/18 09:25:28;;;;;;;2.63;1.70;;;;;;;0.99;75.67;99539.44;5061740;28;20033;-59
2021/12/18 09:27:56;;;;;;;1.35;1.00;;;;;;;0.88;74.50;99540.97;5062272;28;20039;-59
2021/12/18 09:30:23;;;;;;;2.33;1.10;;;;;;;0.79;74.40;99539.97;5063313;28;20041;-59
2021/12/18 09:32:49;;;;;;;1.20;1.10;;;;;;;0.80;74.06;99523.03;5062802;28;20036;-60
2021/12/18 09:35:15;;;;;;;1.55;0.95;;;;;;;0.89;74.53;99533.34;5061365;28;20041;-58
2021/12/18 09:37:41;;;;;;;1.00;0.90;;;;;;;0.83;73.46;99539.19;5061935;28;20322;-59
2021/12/18 09:40:09;;;;;;;1.65;1.00;;;;;;;0.80;73.47;99539.16;5042040;28;20116;-59
2021/12/18 09:42:36;;;;;;;0.80;0.80;;;;;;;0.81;74.04;99529.81;5061382;28;20102;-59
2021/12/18 09:45:04;;;;;;;1.40;0.98;;;;;;;0.80;73.15;99528.97;5061460;28;20325;-59
2021/12/18 09:47:30;;;;;;;1.38;1.05;;;;;;;0.78;72.14;99529.75;5062827;28;20040;-59
2021/12/18 09:49:56;;;;;;;1.83;0.93;;;;;;;0.83;71.96;99523.91;5062590;28;20104;-59
2021/12/18 09:52:22;;;;;;;1.00;0.90;;;;;;;0.79;73.21;99523.84;5062682;28;20033;-59
2021/12/18 09:54:47;;;;;;;2.67;1.40;;;;;;;0.75;72.26;99522.94;5062202;28;20043;-60
2021/12/18 09:57:13;;;;;;;1.20;1.10;;;;;;;0.73;71.07;99527.16;5049120;28;20033;-59
2021/12/18 09:59:39;;;;;;;1.08;0.90;;;;;;;0.69;71.85;99502.44;5062932;28;20089;-59
2021/12/18 10:02:05;;;;;;;1.35;1.10;;;;;;;0.82;71.87;99512.00;5061723;28;20106;-58
2021/12/18 10:04:32;;;;;;;1.45;1.02;;;;;;;0.81;71.23;99517.94;5061317;28;20079;-59
2021/12/18 10:07:00;;;;;;;1.15;1.08;;;;;;;0.54;71.71;99479.28;5060148;28;21372;-58
2021/12/18 10:09:25;;;;;;;6.20;1.58;;;;;;;0.64;71.15;99516.81;5046279;28;20029;-59
2021/12/18 10:11:54;;;;;;;3.03;1.30;;;;;;;0.61;73.14;99519.31;5047123;28;20039;-58
2021/12/18 10:14:37;;;;;;;1.50;1.13;;;;;;;0.65;73.35;99514.28;5061435;28;20925;-59
2021/12/18 10:17:04;;;;;;;2.92;1.25;;;;;;;0.70;73.17;99509.28;5061609;28;20268;-58
2021/12/18 10:19:41;;;;;;;0.80;0.80;;;;;;;0.47;72.73;99483.41;5061413;28;20043;-58
2021/12/18 10:22:09;;;;;;;1.20;1.10;;;;;;;0.29;72.37;99433.91;5060952;28;20036;-57
2021/12/18 10:24:39;;;;;;;1.30;1.20;;;;;;;0.29;72.90;99430.50;5060367;28;20613;-58
2021/12/18 10:27:23;;;;;;;1.90;1.35;;;;;;;0.75;71.85;99525.47;5062890;28;20051;-58
2021/12/18 10:29:53;;;;;;;2.65;1.20;;;;;;;0.60;71.49;99494.66;5061207;28;20033;-58
2021/12/18 10:32:23;;;;;;;2.70;1.40;;;;;;;0.57;71.77;99480.19;5061743;28;20033;-58
2021/12/18 10:34:54;;;;;;;2.30;1.40;;;;;;;0.43;71.69;99457.03;5061076;28;20033;-58
2021/12/18 10:37:25;;;;;;;1.52;1.00;;;;;;;0.74;70.86;99505.94;5060859;28;20032;-62
2021/12/18 10:39:50;;;;;;;1.75;1.40;;;;;;;0.76;71.06;99496.63;5061189;28;20882;-59
2021/12/18 10:42:22;;;;;;;2.72;1.83;;;;;;;0.83;70.97;99497.56;5040691;28;20052;-58
2021/12/18 10:45:24;;;;;;;2.33;1.70;;;;;;;0.74;69.77;99492.31;5020370;28;20213;-59
2021/12/18 10:48:03;;;;;;;1.60;1.45;;;;;;;0.72;70.80;99492.31;5017801;28;20045;-58
2021/12/18 10:50:32;;;;;;;3.55;1.58;;;;;;;0.72;70.15;99491.44;5020490;28;20026;-58
2021/12/18 10:53:01;;;;;;;1.75;1.38;;;;;;;0.77;70.27;99489.81;5005156;28;20041;-59
2021/12/18 10:55:33;;;;;;;3.38;1.52;;;;;;;0.59;69.86;99462.38;5022194;28;20038;-58
2021/12/18 10:58:01;;;;;;;1.73;1.30;;;;;;;0.60;68.60;99487.00;5023660;28;20033;-58
2021/12/18 11:00:36;;;;;;;2.75;1.48;;;;;;;0.63;68.21;99489.63;5021848;28;20029;-58
2021/12/18 11:03:48;;;;;;;1.10;0.80;;;;;;;0.57;67.38;99484.41;5022140;28;20033;-58
2021/12/18 11:06:24;;;;;;;4.53;0.85;;;;;;;0.59;65.93;99492.97;5007130;28;20072;-59
2021/12/18 11:09:06;;;;;;;1.73;1.02;;;;;;;0.60;65.60;99485.34;5020389;28;20037;-57
2021/12/18 11:14:15;;;;;;;1.00;0.70;;;;;;;0.59;65.21;99482.75;5021974;28;20392;-58
2021/12/18 11:16:51;;;;;;;1.33;0.90;;;;;;;0.31;65.05;99419.50;5021178;28;20029;-58
2021/12/18 11:19:18;;;;;;;1.13;0.73;;;;;;;0.62;66.08;99473.47;5021286;28;20103;-59
2021/12/18 11:21:49;;;;;;;1.20;0.57;;;;;;;0.50;64.62;99463.94;5020556;28;20033;-57
2021/12/18 11:24:16;;;;;;;0.80;0.80;;;;;;;0.47;64.89;99453.72;5020880;28;20508;-58
2021/12/18 11:27:09;;;;;;;3.08;2.28;;;;;;;0.61;64.45;99465.78;5020098;28;20026;-58
2021/12/18 11:29:41;;;;;;;1.02;1.00;;;;;;;0.59;64.24;99460.69;4998048;28;20045;-59
2021/12/18 11:32:17;;;;;;;1.00;0.90;;;;;;;0.61;66.55;99455.59;5006746;28;20358;-59
2021/12/18 11:34:45;;;;;;;1.15;0.93;;;;;;;0.58;65.86;99446.22;5019829;28;20042;-58
2021/12/18 11:37:13;;;;;;;0.98;0.80;;;;;;;0.40;67.07;99398.41;5020498;28;20029;-58
2021/12/18 11:39:40;;;;;;;2.55;1.00;;;;;;;0.72;65.75;99460.88;5020973;28;20335;-59
2021/12/18 11:42:07;;;;;;;1.80;1.00;;;;;;;0.67;68.42;99448.91;5035030;28;20557;-58
2021/12/18 11:44:36;;;;;;;1.10;1.00;;;;;;;0.22;66.37;99360.78;5060586;28;20044;-58
2021/12/18 11:47:23;;;;;;;1.48;1.00;;;;;;;0.75;66.08;99446.47;5060160;28;20033;-58
2021/12/18 11:49:49;;;;;;;1.20;1.10;;;;;;;0.74;67.34;99449.88;5058064;28;20032;-58
2021/12/18 11:52:15;;;;;;;3.15;1.65;;;;;;;0.79;66.31;99447.38;5060756;28;20044;-58
2021/12/18 11:54:48;;;;;;;1.90;1.50;;;;;;;0.71;66.88;99446.41;5059229;28;20043;-59
2021/12/18 11:57:54;;;;;;;1.58;1.20;;;;;;;0.63;66.00;99444.59;5061290;28;20051;-58
2021/12/18 12:00:21;;;;;;;4.47;1.50;;;;;;;0.62;65.89;99442.03;5060526;28;20047;-58
2021/12/18 12:02:50;;;;;;;1.88;1.10;;;;;;;0.44;64.92;99451.13;5060025;28;20033;-58
2021/12/18 12:05:18;;;;;;;1.88;1.20;;;;;;;0.23;66.83;99371.81;5060811;28;20361;-58
2021/12/18 12:07:45;;;;;;;1.67;1.13;;;;;;;0.57;66.04;99419.03;5059555;28;20056;-58
2021/12/18 12:10:46;;;;;;;3.72;1.35;;;;;;;0.62;66.20;99442.03;5060838;28;20032;-58
2021/12/18 12:13:09;;;;;;;3.05;1.48;;;;;;;0.61;66.79;99422.47;5059562;28;20044;-58
2021/12/18 12:15:51;;;;;;;2.25;1.50;;;;;;;0.63;66.51;99408.94;5059999;28;20514;-58
2021/12/18 12:18:17;;;;;;;2.78;1.80;;;;;;;0.58;66.74;99402.91;5060998;28;20040;-58
2021/12/18 12:20:48;;;;;;;3.42;1.50;;;;;;;0.46;65.97;99421.41;5060433;28;20044;-58
2021/12/18 12:23:14;;;;;;;3.05;1.52;;;;;;;0.55;67.78;99404.56;5059527;28;20033;-59
2021/12/18 12:25:51;;;;;;;2.22;1.60;;;;;;;0.21;66.86;99342.94;5059880;28;20040;-58
2021/12/18 12:28:25;;;;;;;2.22;1.48;;;;;;;0.39;65.25;99389.06;5059741;28;20037;-58